sensor_id;sensor_type;location;lat;lon;timestamp;pressure;altitude;pressure_sealevel;temperature;humidity
50734;BME280;36701;51.798;19.474;2022-12-07T00:01:36;98179.66;;;2.11;100.00
50734;BME280;36701;51.798;19.474;2022-12-07T00:04:06;98180.66;;;2.10;100.00
50734;BME280;36701;51.798;19.474;2022-12-07T00:06:35;98176.72;;;2.20;100.00
50734;BME280;36701;51.798;19.474;2022-12-07T00:09:02;98143.56;;;1.72;100.00
50734;BME280;36701;51.798;19.474;2022-12-07T00:11:29;98173.66;;;1.91;100.00
50734;BME280;36701;51.798;19.474;2022-12-07T00:13:58;98171.78;;;1.66;100.00
50734;BME280;36701;51.798;19.474;2022-12-07T00:16:28;98171.37;;;1.69;100.00
50734;BME280;36701;51.798;19.474;2022-12-07T00:18:55;98171.16;;;1.96;100.00
50734;BME280;36701;51.798;19.474;2022-12-07T00:21:24;98181.47;;;1.86;100.00
50734;BME280;36701;51.798;19.474;2022-12-07T00:23:53;98175.88;;;1.62;100.00
50734;BME280;36701;51.798;19.474;2022-12-07T00:26:23;98172.44;;;1.61;100.00
50734;BME280;36701;51.798;19.474;2022-12-07T00:28:51;98141.81;;;1.91;100.00
50734;BME280;36701;51.798;19.474;2022-12-07T00:31:20;98159.16;;;1.93;100.00
50734;BME280;36701;51.798;19.474;2022-12-07T00:33:47;98176.31;;;1.59;100.00
50734;BME280;36701;51.798;19.474;2022-12-07T00:36:17;98172.59;;;1.98;100.00
50734;BME280;36701;51.798;19.474;2022-12-07T00:38:43;98169.03;;;2.11;100.00
50734;BME280;36701;51.798;19.474;2022-12-07T00:41:13;98181.31;;;2.06;100.00
50734;BME280;36701;51.798;19.474;2022-12-07T00:43:41;98165.00;;;2.02;100.00
50734;BME280;36701;51.798;19.474;2022-12-07T00:46:08;98181.16;;;1.69;100.00
50734;BME280;36701;51.798;19.474;2022-12-07T00:48:35;98145.16;;;1.79;100.00
50734;BME280;36701;51.798;19.474;2022-12-07T00:51:03;98173.97;;;2.08;100.00
50734;BME280;36701;51.798;19.474;2022-12-07T00:53:29;98164.09;;;2.15;100.00
50734;BME280;36701;51.798;19.474;2022-12-07T00:55:57;98183.22;;;1.67;100.00
50734;BME280;36701;51.798;19.474;2022-12-07T00:58:23;98145.69;;;1.63;100.00
50734;BME280;36701;51.798;19.474;2022-12-07T03:02:24;98100.25;;;1.78;100.00
50734;BME280;36701;51.798;19.474;2022-12-07T03:05:13;98094.87;;;1.85;100.00
50734;BME280;36701;51.798;19.474;2022-12-07T03:07:58;98087.13;;;2.08;100.00
50734;BME280;36701;51.798;19.474;2022-12-07T03:16:33;98097.69;;;1.90;100.00
50734;BME280;36701;51.798;19.474;2022-12-07T03:19:13;98096.16;;;1.82;100.00
50734;BME280;36701;51.798;19.474;2022-12-07T03:21:44;98096.84;;;1.96;100.00
50734;BME280;36701;51.798;19.474;2022-12-07T03:24:14;98088.72;;;1.91;100.00
50734;BME280;36701;51.798;19.474;2022-12-07T03:26:46;98079.31;;;1.88;100.00
50734;BME280;36701;51.798;19.474;2022-12-07T03:29:27;98088.59;;;2.04;100.00
50734;BME280;36701;51.798;19.474;2022-12-07T03:31:59;98082.97;;;1.94;100.00
50734;BME280;36701;51.798;19.474;2022-12-07T03:34:34;98064.09;;;1.52;100.00
50734;BME280;36701;51.798;19.474;2022-12-07T03:37:07;98072.47;;;1.80;100.00
50734;BME280;36701;51.798;19.474;2022-12-07T03:39:41;98078.22;;;1.77;100.00
50734;BME280;36701;51.798;19.474;2022-12-07T03:42:12;98031.72;;;1.68;100.00
50734;BME280;36701;51.798;19.474;2022-12-07T03:44:39;98064.31;;;1.75;100.00
50734;BME280;36701;51.798;19.474;2022-12-07T03:47:13;98078.56;;;1.56;100.00
50734;BME280;36701;51.798;19.474;2022-12-07T03:49:50;98041.84;;;1.78;100.00
50734;BME280;36701;51.798;19.474;2022-12-07T03:55:00;98066.38;;;1.73;100.00
50734;BME280;36701;51.798;19.474;2022-12-07T03:57:31;98044.66;;;1.33;100.00
50734;BME280;36701;51.798;19.474;2022-12-07T03:59:59;98073.84;;;1.58;100.00
50734;BME280;36701;51.798;19.474;2022-12-07T04:02:28;98061.66;;;1.50;100.00
50734;BME280;36701;51.798;19.474;2022-12-07T04:04:55;98068.59;;;1.76;100.00
50734;BME280;36701;51.798;19.474;2022-12-07T04:07:22;98038.22;;;1.72;100.00
50734;BME280;36701;51.798;19.474;2022-12-07T04:09:48;98052.31;;;1.98;100.00
50734;BME280;36701;51.798;19.474;2022-12-07T04:12:15;98051.69;;;1.96;100.00
50734;BME280;36701;51.798;19.474;2022-12-07T04:14:41;98064.44;;;1.62;100.00
50734;BME280;36701;51.798;19.474;2022-12-07T04:17:08;98022.25;;;1.79;100.00
50734;BME280;36701;51.798;19.474;2022-12-07T04:19:34;98028.94;;;1.56;100.00
50734;BME280;36701;51.798;19.474;2022-12-07T04:22:03;98064.28;;;1.57;100.00
50734;BME280;36701;51.798;19.474;2022-12-07T04:24:30;98059.91;;;1.69;100.00
50734;BME280;36701;51.798;19.474;2022-12-07T04:26:57;98053.00;;;1.87;100.00
50734;BME280;36701;51.798;19.474;2022-12-07T04:29:23;98061.84;;;1.55;100.00
50734;BME280;36701;51.798;19.474;2022-12-07T04:31:50;98062.91;;;1.48;100.00
50734;BME280;36701;51.798;19.474;2022-12-07T04:34:18;98057.16;;;1.51;100.00
50734;BME280;36701;51.798;19.474;2022-12-07T04:36:45;98028.84;;;1.70;100.00
50734;BME280;36701;51.798;19.474;2022-12-07T04:39:30;98051.16;;;2.12;100.00
50734;BME280;36701;51.798;19.474;2022-12-07T04:41:58;98025.00;;;1.91;100.00
50734;BME280;36701;51.798;19.474;2022-12-07T04:44:26;98042.13;;;2.13;100.00
50734;BME280;36701;51.798;19.474;2022-12-07T04:46:53;98034.41;;;1.87;100.00
50734;BME280;36701;51.798;19.474;2022-12-07T04:49:20;98050.22;;;1.50;100.00
50734;BME280;36701;51.798;19.474;2022-12-07T04:51:47;98037.22;;;1.41;100.00
50734;BME280;36701;51.798;19.474;2022-12-07T04:54:14;98016.25;;;1.65;100.00
50734;BME280;36701;51.798;19.474;2022-12-07T04:56:42;98017.97;;;1.53;100.00
50734;BME280;36701;51.798;19.474;2022-12-07T04:59:10;98045.78;;;1.43;100.00
50734;BME280;36701;51.798;19.474;2022-12-07T05:01:37;98041.34;;;1.37;100.00
50734;BME280;36701;51.798;19.474;2022-12-07T05:04:04;98039.53;;;1.63;100.00
50734;BME280;36701;51.798;19.474;2022-12-07T05:06:37;98035.75;;;1.77;100.00
50734;BME280;36701;51.798;19.474;2022-12-07T05:09:03;98034.97;;;1.70;100.00
50734;BME280;36701;51.798;19.474;2022-12-07T05:11:30;98006.34;;;1.22;100.00
50734;BME280;36701;51.798;19.474;2022-12-07T05:16:36;98035.19;;;1.94;100.00
50734;BME280;36701;51.798;19.474;2022-12-07T05:19:02;98040.56;;;1.87;100.00
50734;BME280;36701;51.798;19.474;2022-12-07T05:21:29;98034.66;;;1.60;100.00
50734;BME280;36701;51.798;19.474;2022-12-07T05:23:55;97994.69;;;1.55;100.00
50734;BME280;36701;51.798;19.474;2022-12-07T05:26:22;98033.13;;;1.96;100.00
50734;BME280;36701;51.798;19.474;2022-12-07T05:28:53;98004.75;;;1.71;100.00
50734;BME280;36701;51.798;19.474;2022-12-07T05:31:20;98031.91;;;1.41;100.00
50734;BME280;36701;51.798;19.474;2022-12-07T05:33:46;98051.25;;;1.80;100.00
50734;BME280;36701;51.798;19.474;2022-12-07T05:36:13;98057.16;;;1.51;100.00
50734;BME280;36701;51.798;19.474;2022-12-07T05:38:40;98050.47;;;1.73;100.00
50734;BME280;36701;51.798;19.474;2022-12-07T05:41:07;98048.34;;;1.57;100.00
50734;BME280;36701;51.798;19.474;2022-12-07T05:43:55;98053.28;;;1.78;100.00
50734;BME280;36701;51.798;19.474;2022-12-07T05:46:21;98055.66;;;1.87;100.00
50734;BME280;36701;51.798;19.474;2022-12-07T05:48:48;98051.25;;;1.80;100.00
50734;BME280;36701;51.798;19.474;2022-12-07T05:51:14;98027.53;;;1.29;100.00
50734;BME280;36701;51.798;19.474;2022-12-07T05:53:41;98053.69;;;1.75;100.00
50734;BME280;36701;51.798;19.474;2022-12-07T05:56:07;98047.78;;;1.23;100.00
50734;BME280;36701;51.798;19.474;2022-12-07T05:58:33;98055.88;;;1.60;100.00
50734;BME280;36701;51.798;19.474;2022-12-07T06:01:18;98062.00;;;1.60;100.00
50734;BME280;36701;51.798;19.474;2022-12-07T06:03:45;98048.63;;;1.49;100.00
50734;BME280;36701;51.798;19.474;2022-12-07T06:06:11;98033.38;;;1.69;100.00
50734;BME280;36701;51.798;19.474;2022-12-07T06:08:38;98027.94;;;1.83;100.00
50734;BME280;36701;51.798;19.474;2022-12-07T06:11:04;98045.66;;;2.07;100.00
50734;BME280;36701;51.798;19.474;2022-12-07T06:13:49;98027.06;;;1.89;100.00
50734;BME280;36701;51.798;19.474;2022-12-07T06:16:16;98063.47;;;1.81;100.00
50734;BME280;36701;51.798;19.474;2022-12-07T06:18:42;98062.38;;;2.14;100.00
50734;BME280;36701;51.798;19.474;2022-12-07T06:21:08;98048.97;;;2.03;100.00
50734;BME280;36701;51.798;19.474;2022-12-07T06:23:35;98033.50;;;1.99;100.00
50734;BME280;36701;51.798;19.474;2022-12-07T06:26:01;98064.00;;;2.15;100.00
50734;BME280;36701;51.798;19.474;2022-12-07T06:28:27;98031.16;;;1.85;100.00
50734;BME280;36701;51.798;19.474;2022-12-07T06:30:59;98058.34;;;2.05;100.00
50734;BME280;36701;51.798;19.474;2022-12-07T06:33:26;98053.84;;;2.49;100.00
50734;BME280;36701;51.798;19.474;2022-12-07T06:35:52;98056.03;;;2.15;100.00
50734;BME280;36701;51.798;19.474;2022-12-07T06:38:19;98045.62;;;2.14;100.00
50734;BME280;36701;51.798;19.474;2022-12-07T06:40:45;98059.00;;;2.44;100.00
50734;BME280;36701;51.798;19.474;2022-12-07T06:43:12;98057.97;;;2.45;100.00
50734;BME280;36701;51.798;19.474;2022-12-07T06:45:40;98032.13;;;2.15;100.00
50734;BME280;36701;51.798;19.474;2022-12-07T06:48:06;98055.63;;;2.56;100.00
50734;BME280;36701;51.798;19.474;2022-12-07T06:50:33;98060.72;;;2.57;100.00
50734;BME280;36701;51.798;19.474;2022-12-07T06:52:59;98024.69;;;2.24;100.00
50734;BME280;36701;51.798;19.474;2022-12-07T06:55:26;98062.91;;;2.42;100.00
50734;BME280;36701;51.798;19.474;2022-12-07T06:57:52;98061.28;;;2.41;100.00
50734;BME280;36701;51.798;19.474;2022-12-07T07:00:19;98033.00;;;2.09;100.00
50734;BME280;36701;51.798;19.474;2022-12-07T07:02:45;98060.19;;;2.30;100.00
50734;BME280;36701;51.798;19.474;2022-12-07T07:05:12;98059.16;;;2.49;100.00
50734;BME280;36701;51.798;19.474;2022-12-07T07:07:38;98024.59;;;2.31;100.00
50734;BME280;36701;51.798;19.474;2022-12-07T07:10:05;98050.72;;;2.71;100.00
50734;BME280;36701;51.798;19.474;2022-12-07T07:12:31;98041.09;;;2.88;100.00
50734;BME280;36701;51.798;19.474;2022-12-07T07:14:58;98055.44;;;2.87;100.00
50734;BME280;36701;51.798;19.474;2022-12-07T07:17:24;98047.34;;;2.45;100.00
50734;BME280;36701;51.798;19.474;2022-12-07T07:19:51;98059.72;;;2.33;100.00
50734;BME280;36701;51.798;19.474;2022-12-07T07:22:17;98061.78;;;2.68;100.00
50734;BME280;36701;51.798;19.474;2022-12-07T07:24:43;98049.56;;;2.67;100.00
50734;BME280;36701;51.798;19.474;2022-12-07T07:27:10;98067.41;;;2.78;100.00
50734;BME280;36701;51.798;19.474;2022-12-07T07:29:36;98075.84;;;2.94;100.00
50734;BME280;36701;51.798;19.474;2022-12-07T07:32:03;98068.59;;;2.82;100.00
50734;BME280;36701;51.798;19.474;2022-12-07T07:34:29;98058.37;;;2.79;100.00
50734;BME280;36701;51.798;19.474;2022-12-07T07:36:55;98078.94;;;2.72;100.00
50734;BME280;36701;51.798;19.474;2022-12-07T07:39:22;98070.03;;;2.97;100.00
50734;BME280;36701;51.798;19.474;2022-12-07T07:41:48;98073.00;;;2.88;100.00
50734;BME280;36701;51.798;19.474;2022-12-07T07:44:23;98075.53;;;3.02;100.00
50734;BME280;36701;51.798;19.474;2022-12-07T07:46:49;98077.31;;;2.71;100.00
50734;BME280;36701;51.798;19.474;2022-12-07T07:49:16;98079.22;;;2.45;100.00
50734;BME280;36701;51.798;19.474;2022-12-07T07:51:42;98087.03;;;2.40;100.00
50734;BME280;36701;51.798;19.474;2022-12-07T07:54:09;98086.59;;;2.43;100.00
50734;BME280;36701;51.798;19.474;2022-12-07T07:56:35;98080.13;;;2.76;100.00
50734;BME280;36701;51.798;19.474;2022-12-07T07:59:02;98056.94;;;2.65;100.00
50734;BME280;36701;51.798;19.474;2022-12-07T08:01:28;98080.25;;;2.63;100.00
50734;BME280;36701;51.798;19.474;2022-12-07T08:03:55;98048.50;;;2.31;100.00
50734;BME280;36701;51.798;19.474;2022-12-07T08:06:21;98051.09;;;2.37;100.00
50734;BME280;36701;51.798;19.474;2022-12-07T08:08:47;98070.09;;;2.41;100.00
50734;BME280;36701;51.798;19.474;2022-12-07T08:11:14;98020.69;;;2.15;100.00
50734;BME280;36701;51.798;19.474;2022-12-07T08:13:40;98061.78;;;2.31;100.00
50734;BME280;36701;51.798;19.474;2022-12-07T08:16:09;98093.16;;;2.41;100.00
50734;BME280;36701;51.798;19.474;2022-12-07T08:18:37;98105.56;;;2.03;100.00
50734;BME280;36701;51.798;19.474;2022-12-07T08:21:04;98094.66;;;2.36;100.00
50734;BME280;36701;51.798;19.474;2022-12-07T08:23:31;98099.06;;;1.99;100.00
50734;BME280;36701;51.798;19.474;2022-12-07T08:26:01;98101.19;;;1.90;100.00
50734;BME280;36701;51.798;19.474;2022-12-07T08:28:29;98091.34;;;2.60;100.00
50734;BME280;36701;51.798;19.474;2022-12-07T08:31:10;98084.41;;;2.59;100.00
50734;BME280;36701;51.798;19.474;2022-12-07T08:33:38;98100.38;;;2.59;100.00
50734;BME280;36701;51.798;19.474;2022-12-07T08:36:07;98059.84;;;1.76;100.00
50734;BME280;36701;51.798;19.474;2022-12-07T08:38:36;98085.41;;;2.39;100.00
50734;BME280;36701;51.798;19.474;2022-12-07T08:41:03;98057.69;;;2.35;100.00
50734;BME280;36701;51.798;19.474;2022-12-07T08:43:30;98057.06;;;2.14;100.00
50734;BME280;36701;51.798;19.474;2022-12-07T08:49:13;98092.88;;;2.30;100.00
50734;BME280;36701;51.798;19.474;2022-12-07T08:51:41;98078.81;;;2.67;100.00
50734;BME280;36701;51.798;19.474;2022-12-07T08:54:11;98047.31;;;1.83;100.00
50734;BME280;36701;51.798;19.474;2022-12-07T08:56:40;98079.94;;;2.34;100.00
50734;BME280;36701;51.798;19.474;2022-12-07T08:59:07;98086.91;;;2.35;100.00
50734;BME280;36701;51.798;19.474;2022-12-07T09:01:34;98082.38;;;1.92;100.00
50734;BME280;36701;51.798;19.474;2022-12-07T09:04:00;98081.09;;;2.01;100.00
50734;BME280;36701;51.798;19.474;2022-12-07T09:06:27;98080.37;;;2.12;100.00
50734;BME280;36701;51.798;19.474;2022-12-07T09:08:57;98052.84;;;1.81;100.00
50734;BME280;36701;51.798;19.474;2022-12-07T09:11:25;98074.50;;;1.78;100.00
50734;BME280;36701;51.798;19.474;2022-12-07T09:13:51;98071.63;;;2.05;100.00
50734;BME280;36701;51.798;19.474;2022-12-07T09:16:18;98072.47;;;1.80;100.00
50734;BME280;36701;51.798;19.474;2022-12-07T09:18:44;98075.78;;;2.01;100.00
50734;BME280;36701;51.798;19.474;2022-12-07T09:21:11;98064.91;;;2.03;100.00
50734;BME280;36701;51.798;19.474;2022-12-07T09:23:37;98075.81;;;1.69;100.00
50734;BME280;36701;51.798;19.474;2022-12-07T09:26:04;98071.47;;;1.75;100.00
50734;BME280;36701;51.798;19.474;2022-12-07T09:28:31;98065.37;;;1.74;100.00
50734;BME280;36701;51.798;19.474;2022-12-07T09:30:57;98068.53;;;2.08;100.00
50734;BME280;36701;51.798;19.474;2022-12-07T09:33:24;98059.56;;;2.09;100.00
50734;BME280;36701;51.798;19.474;2022-12-07T09:35:51;98057.87;;;1.90;100.00
50734;BME280;36701;51.798;19.474;2022-12-07T09:38:18;98062.38;;;2.14;100.00
50734;BME280;36701;51.798;19.474;2022-12-07T09:40:46;98047.50;;;2.32;100.00
50734;BME280;36701;51.798;19.474;2022-12-07T09:43:21;97996.37;;;1.49;100.00
50734;BME280;36701;51.798;19.474;2022-12-07T09:45:51;98023.31;;;1.96;100.00
50734;BME280;36701;51.798;19.474;2022-12-07T09:48:22;98064.87;;;2.09;100.00
50734;BME280;36701;51.798;19.474;2022-12-07T09:50:54;98052.53;;;1.71;100.00
50734;BME280;36701;51.798;19.474;2022-12-07T09:53:30;98023.66;;;1.81;100.00
50734;BME280;36701;51.798;19.474;2022-12-07T09:55:59;97985.91;;;1.79;100.00
50734;BME280;36701;51.798;19.474;2022-12-07T09:58:28;98032.03;;;1.78;100.00
50734;BME280;36701;51.798;19.474;2022-12-07T10:00:59;98019.37;;;1.80;100.00
50734;BME280;36701;51.798;19.474;2022-12-07T10:03:27;98039.38;;;2.27;100.00
50734;BME280;36701;51.798;19.474;2022-12-07T10:05:54;98028.00;;;2.20;100.00
50734;BME280;36701;51.798;19.474;2022-12-07T10:08:21;98033.38;;;2.13;100.00
50734;BME280;36701;51.798;19.474;2022-12-07T10:10:53;98023.62;;;1.63;100.00
50734;BME280;36701;51.798;19.474;2022-12-07T10:13:43;97995.50;;;1.99;100.00
50734;BME280;36701;51.798;19.474;2022-12-07T10:18:50;98038.81;;;1.99;100.00
50734;BME280;36701;51.798;19.474;2022-12-07T10:21:21;98021.19;;;2.05;100.00
50734;BME280;36701;51.798;19.474;2022-12-07T10:34:42;98019.56;;;2.04;100.00
50734;BME280;36701;51.798;19.474;2022-12-07T10:39:42;98016.81;;;1.92;100.00
50734;BME280;36701;51.798;19.474;2022-12-07T10:42:22;98002.00;;;2.03;100.00
50734;BME280;36701;51.798;19.474;2022-12-07T10:45:07;97984.97;;;1.92;100.00
50734;BME280;36701;51.798;19.474;2022-12-07T10:47:36;97982.88;;;1.51;100.00
50734;BME280;36701;51.798;19.474;2022-12-07T10:53:50;98014.41;;;2.28;100.00
50734;BME280;36701;51.798;19.474;2022-12-07T11:04:30;98016.75;;;1.74;100.00
50734;BME280;36701;51.798;19.474;2022-12-07T11:12:27;97989.37;;;1.55;100.00
50734;BME280;36701;51.798;19.474;2022-12-07T11:15:20;98014.63;;;2.26;100.00
50734;BME280;36701;51.798;19.474;2022-12-07T11:18:09;98013.53;;;2.52;100.00
50734;BME280;36701;51.798;19.474;2022-12-07T11:24:26;98021.63;;;2.02;100.00
50734;BME280;36701;51.798;19.474;2022-12-07T11:32:22;98001.75;;;1.86;100.00
50734;BME280;36701;51.798;19.474;2022-12-07T11:35:11;97990.63;;;1.96;100.00
50734;BME280;36701;51.798;19.474;2022-12-07T11:37:46;97987.03;;;1.65;100.00
50734;BME280;36701;51.798;19.474;2022-12-07T11:40:35;97945.19;;;1.17;100.00
50734;BME280;36701;51.798;19.474;2022-12-07T11:43:18;97979.94;;;1.59;100.00
50734;BME280;36701;51.798;19.474;2022-12-07T11:46:04;97969.09;;;1.86;100.00
50734;BME280;36701;51.798;19.474;2022-12-07T11:48:37;97967.03;;;1.88;100.00
50734;BME280;36701;51.798;19.474;2022-12-07T11:51:07;97980.09;;;1.89;100.00
50734;BME280;36701;51.798;19.474;2022-12-07T11:53:44;97989.84;;;1.70;100.00
50734;BME280;36701;51.798;19.474;2022-12-07T11:56:20;97962.75;;;1.87;100.00
50734;BME280;36701;51.798;19.474;2022-12-07T12:06:40;97936.84;;;1.63;100.00
50734;BME280;36701;51.798;19.474;2022-12-07T12:20:20;97954.12;;;1.73;100.00
50734;BME280;36701;51.798;19.474;2022-12-07T12:23:22;97947.16;;;1.72;100.00
50734;BME280;36701;51.798;19.474;2022-12-07T12:25:54;97954.06;;;1.98;100.00
50734;BME280;36701;51.798;19.474;2022-12-07T12:28:41;97941.66;;;1.73;100.00
50734;BME280;36701;51.798;19.474;2022-12-07T12:33:37;97945.47;;;1.59;100.00
50734;BME280;36701;51.798;19.474;2022-12-07T12:47:01;97932.75;;;1.86;100.00
50734;BME280;36701;51.798;19.474;2022-12-07T12:49:35;97936.53;;;2.15;100.00
50734;BME280;36701;51.798;19.474;2022-12-07T12:57:37;97925.50;;;2.12;100.00
50734;BME280;36701;51.798;19.474;2022-12-07T13:00:23;97918.34;;;1.75;100.00
50734;BME280;36701;51.798;19.474;2022-12-07T13:02:58;97922.78;;;1.63;100.00
50734;BME280;36701;51.798;19.474;2022-12-07T13:05:30;97925.78;;;1.67;100.00
50734;BME280;36701;51.798;19.474;2022-12-07T13:08:12;97915.69;;;1.75;100.00
50734;BME280;36701;51.798;19.474;2022-12-07T13:10:46;97921.75;;;1.83;100.00
50734;BME280;36701;51.798;19.474;2022-12-07T13:13:28;97919.84;;;1.71;100.00
50734;BME280;36701;51.798;19.474;2022-12-07T13:18:39;97912.78;;;1.84;100.00
50734;BME280;36701;51.798;19.474;2022-12-07T13:29:20;97908.03;;;2.04;100.00
50734;BME280;36701;51.798;19.474;2022-12-07T13:31:57;97903.75;;;1.85;100.00
50734;BME280;36701;51.798;19.474;2022-12-07T13:34:31;97895.50;;;1.74;100.00
50734;BME280;36701;51.798;19.474;2022-12-07T13:37:23;97905.41;;;1.86;100.00
50734;BME280;36701;51.798;19.474;2022-12-07T13:40:12;97890.25;;;1.49;100.00
50734;BME280;36701;51.798;19.474;2022-12-07T13:43:01;97888.00;;;1.71;100.00
50734;BME280;36701;51.798;19.474;2022-12-07T13:45:33;97902.28;;;1.52;100.00
50734;BME280;36701;51.798;19.474;2022-12-07T13:48:28;97909.66;;;1.68;100.00
50734;BME280;36701;51.798;19.474;2022-12-07T13:51:02;97909.06;;;1.85;100.00
50734;BME280;36701;51.798;19.474;2022-12-07T13:53:46;97914.53;;;1.71;100.00
50734;BME280;36701;51.798;19.474;2022-12-07T13:56:15;97910.19;;;1.95;100.00
50734;BME280;36701;51.798;19.474;2022-12-07T13:58:45;97905.44;;;1.60;100.00
50734;BME280;36701;51.798;19.474;2022-12-07T14:01:12;97904.72;;;1.28;100.00
50734;BME280;36701;51.798;19.474;2022-12-07T14:03:46;97914.03;;;1.37;100.00
50734;BME280;36701;51.798;19.474;2022-12-07T14:06:23;97891.47;;;1.47;100.00
50734;BME280;36701;51.798;19.474;2022-12-07T14:09:07;97910.41;;;2.12;100.00
50734;BME280;36701;51.798;19.474;2022-12-07T14:11:35;97916.44;;;1.83;100.00
50734;BME280;36701;51.798;19.474;2022-12-07T14:14:02;97913.22;;;1.80;100.00
50734;BME280;36701;51.798;19.474;2022-12-07T14:16:35;97929.06;;;1.87;100.00
50734;BME280;36701;51.798;19.474;2022-12-07T14:19:39;97921.13;;;2.36;100.00
50734;BME280;36701;51.798;19.474;2022-12-07T14:22:08;97915.38;;;2.39;100.00
50734;BME280;36701;51.798;19.474;2022-12-07T14:24:41;97921.88;;;2.25;100.00
50734;BME280;36701;51.798;19.474;2022-12-07T14:27:17;97916.34;;;2.26;100.00
50734;BME280;36701;51.798;19.474;2022-12-07T14:29:44;97915.38;;;2.39;100.00
50734;BME280;36701;51.798;19.474;2022-12-07T14:32:24;97923.81;;;2.17;100.00
50734;BME280;36701;51.798;19.474;2022-12-07T14:37:28;97921.75;;;2.38;100.00
50734;BME280;36701;51.798;19.474;2022-12-07T14:39:55;97907.63;;;2.37;100.00
50734;BME280;36701;51.798;19.474;2022-12-07T14:42:24;97903.47;;;2.30;100.00
50734;BME280;36701;51.798;19.474;2022-12-07T14:44:52;97892.22;;;2.28;100.00
50734;BME280;36701;51.798;19.474;2022-12-07T14:47:18;97915.56;;;2.26;100.00
50734;BME280;36701;51.798;19.474;2022-12-07T14:49:46;97885.66;;;1.56;100.00
50734;BME280;36701;51.798;19.474;2022-12-07T14:52:16;97912.16;;;1.81;100.00
50734;BME280;36701;51.798;19.474;2022-12-07T14:54:45;97910.81;;;2.28;100.00
50734;BME280;36701;51.798;19.474;2022-12-07T14:57:13;97912.00;;;2.13;100.00
50734;BME280;36701;51.798;19.474;2022-12-07T14:59:39;97891.38;;;1.97;100.00
50734;BME280;36701;51.798;19.474;2022-12-07T15:02:08;97871.03;;;1.91;100.00
50734;BME280;36701;51.798;19.474;2022-12-07T15:04:36;97903.28;;;2.25;100.00
50734;BME280;36701;51.798;19.474;2022-12-07T15:07:04;97914.25;;;1.98;100.00
50734;BME280;36701;51.798;19.474;2022-12-07T15:09:32;97912.13;;;2.37;100.00
50734;BME280;36701;51.798;19.474;2022-12-07T15:11:58;97870.53;;;1.82;100.00
50734;BME280;36701;51.798;19.474;2022-12-07T15:14:24;97902.59;;;2.17;100.00
50734;BME280;36701;51.798;19.474;2022-12-07T15:16:51;97850.88;;;2.02;100.00
50734;BME280;36701;51.798;19.474;2022-12-07T15:19:21;97892.56;;;2.50;100.00
50734;BME280;36701;51.798;19.474;2022-12-07T15:21:49;97896.94;;;2.44;100.00
50734;BME280;36701;51.798;19.474;2022-12-07T15:24:16;97901.56;;;2.00;100.00
50734;BME280;36701;51.798;19.474;2022-12-07T15:26:49;97886.59;;;1.87;100.00
50734;BME280;36701;51.798;19.474;2022-12-07T15:29:15;97890.41;;;2.10;100.00
50734;BME280;36701;51.798;19.474;2022-12-07T15:31:42;97887.13;;;2.45;100.00
50734;BME280;36701;51.798;19.474;2022-12-07T15:34:09;97866.28;;;2.11;100.00
50734;BME280;36701;51.798;19.474;2022-12-07T15:36:36;97875.41;;;2.34;100.00
50734;BME280;36701;51.798;19.474;2022-12-07T15:39:03;97905.47;;;2.16;100.00
50734;BME280;36701;51.798;19.474;2022-12-07T15:41:30;97893.50;;;2.07;100.00
50734;BME280;36701;51.798;19.474;2022-12-07T15:43:57;97867.13;;;1.93;100.00
50734;BME280;36701;51.798;19.474;2022-12-07T15:46:42;97907.97;;;2.11;100.00
50734;BME280;36701;51.798;19.474;2022-12-07T15:49:15;97880.44;;;2.05;100.00
50734;BME280;36701;51.798;19.474;2022-12-07T15:51:43;97874.56;;;1.85;100.00
50734;BME280;36701;51.798;19.474;2022-12-07T15:54:23;97913.19;;;2.17;100.00
50734;BME280;36701;51.798;19.474;2022-12-07T15:56:52;97901.06;;;2.40;100.00
50734;BME280;36701;51.798;19.474;2022-12-07T15:59:20;97918.63;;;2.41;100.00
50734;BME280;36701;51.798;19.474;2022-12-07T16:01:47;97930.75;;;1.81;100.00
50734;BME280;36701;51.798;19.474;2022-12-07T16:04:13;97885.38;;;1.46;100.00
50734;BME280;36701;51.798;19.474;2022-12-07T16:06:42;97912.47;;;1.73;100.00
50734;BME280;36701;51.798;19.474;2022-12-07T16:09:17;97921.63;;;1.77;100.00
50734;BME280;36701;51.798;19.474;2022-12-07T16:11:43;97917.19;;;1.71;100.00
50734;BME280;36701;51.798;19.474;2022-12-07T16:14:10;97886.19;;;1.47;100.00
50734;BME280;36701;51.798;19.474;2022-12-07T16:16:36;97909.53;;;1.38;100.00
50734;BME280;36701;51.798;19.474;2022-12-07T16:19:03;97912.00;;;1.76;100.00
50734;BME280;36701;51.798;19.474;2022-12-07T16:21:29;97910.81;;;1.72;100.00
50734;BME280;36701;51.798;19.474;2022-12-07T16:23:57;97916.00;;;1.86;100.00
50734;BME280;36701;51.798;19.474;2022-12-07T16:26:25;97917.63;;;1.87;100.00
50734;BME280;36701;51.798;19.474;2022-12-07T16:28:53;97920.72;;;2.02;100.00
50734;BME280;36701;51.798;19.474;2022-12-07T16:31:22;97925.44;;;2.18;100.00
50734;BME280;36701;51.798;19.474;2022-12-07T16:33:49;97926.78;;;2.09;100.00
50734;BME280;36701;51.798;19.474;2022-12-07T16:36:17;97910.88;;;1.66;100.00
50734;BME280;36701;51.798;19.474;2022-12-07T16:38:44;97890.94;;;1.63;100.00
50734;BME280;36701;51.798;19.474;2022-12-07T16:41:11;97924.69;;;1.74;100.00
50734;BME280;36701;51.798;19.474;2022-12-07T16:43:40;97929.56;;;1.77;100.00
50734;BME280;36701;51.798;19.474;2022-12-07T16:46:21;97933.13;;;2.27;100.00
50734;BME280;36701;51.798;19.474;2022-12-07T16:48:47;97927.22;;;1.69;100.00
50734;BME280;36701;51.798;19.474;2022-12-07T16:51:15;97924.53;;;1.25;100.00
50734;BME280;36701;51.798;19.474;2022-12-07T16:53:42;97937.69;;;1.39;100.00
50734;BME280;36701;51.798;19.474;2022-12-07T16:56:13;97899.63;;;1.52;100.00